sensor_id;sensor_type;location;lat;lon;timestamp;P1;durP1;ratioP1;P2;durP2;ratioP2
22650;SDS011;11492;42.646;23.400;2023-06-04T00:00:23;17.67;;;4.93;;
22650;SDS011;11492;42.646;23.400;2023-06-04T00:02:48;6.57;;;5.18;;
22650;SDS011;11492;42.646;23.400;2023-06-04T00:05:14;8.63;;;5.00;;
22650;SDS011;11492;42.646;23.400;2023-06-04T00:07:39;7.28;;;5.18;;
22650;SDS011;11492;42.646;23.400;2023-06-04T00:10:05;9.95;;;5.13;;
22650;SDS011;11492;42.646;23.400;2023-06-04T00:12:31;8.57;;;4.85;;
22650;SDS011;11492;42.646;23.400;2023-06-04T00:14:56;8.18;;;5.60;;
22650;SDS011;11492;42.646;23.400;2023-06-04T00:17:21;9.38;;;5.65;;
22650;SDS011;11492;42.646;23.400;2023-06-04T00:19:47;8.77;;;5.35;;
22650;SDS011;11492;42.646;23.400;2023-06-04T00:22:12;6.53;;;5.18;;
22650;SDS011;11492;42.646;23.400;2023-06-04T00:24:39;9.50;;;5.88;;
22650;SDS011;11492;42.646;23.400;2023-06-04T00:27:06;15.25;;;6.85;;
22650;SDS011;11492;42.646;23.400;2023-06-04T00:29:32;10.52;;;6.72;;
22650;SDS011;11492;42.646;23.400;2023-06-04T00:31:58;11.77;;;7.90;;
22650;SDS011;11492;42.646;23.400;2023-06-04T00:34:23;13.80;;;9.23;;
22650;SDS011;11492;42.646;23.400;2023-06-04T00:36:48;13.60;;;9.15;;
22650;SDS011;11492;42.646;23.400;2023-06-04T00:39:14;16.80;;;9.35;;
22650;SDS011;11492;42.646;23.400;2023-06-04T00:41:39;14.88;;;9.50;;
22650;SDS011;11492;42.646;23.400;2023-06-04T00:44:05;13.48;;;9.43;;
22650;SDS011;11492;42.646;23.400;2023-06-04T00:46:31;14.23;;;9.57;;
22650;SDS011;11492;42.646;23.400;2023-06-04T00:48:57;16.83;;;10.98;;
22650;SDS011;11492;42.646;23.400;2023-06-04T00:51:23;16.60;;;11.07;;
22650;SDS011;11492;42.646;23.400;2023-06-04T00:53:49;20.35;;;11.27;;
22650;SDS011;11492;42.646;23.400;2023-06-04T00:56:15;20.00;;;11.40;;
22650;SDS011;11492;42.646;23.400;2023-06-04T00:58:41;16.48;;;10.95;;
22650;SDS011;11492;42.646;23.400;2023-06-04T01:01:10;14.77;;;10.27;;
22650;SDS011;11492;42.646;23.400;2023-06-04T01:03:42;15.07;;;10.68;;
22650;SDS011;11492;42.646;23.400;2023-06-04T01:06:26;17.10;;;11.32;;
22650;SDS011;11492;42.646;23.400;2023-06-04T01:08:58;17.38;;;11.55;;
22650;SDS011;11492;42.646;23.400;2023-06-04T01:11:32;18.02;;;11.80;;
22650;SDS011;11492;42.646;23.400;2023-06-04T01:13:59;15.23;;;10.75;;
22650;SDS011;11492;42.646;23.400;2023-06-04T01:16:25;18.25;;;12.07;;
22650;SDS011;11492;42.646;23.400;2023-06-04T01:18:56;18.05;;;12.27;;
22650;SDS011;11492;42.646;23.400;2023-06-04T01:21:28;24.23;;;11.88;;
22650;SDS011;11492;42.646;23.400;2023-06-04T01:23:57;18.80;;;11.30;;
22650;SDS011;11492;42.646;23.400;2023-06-04T01:26:26;18.08;;;11.10;;
22650;SDS011;11492;42.646;23.400;2023-06-04T01:28:56;14.10;;;7.10;;
22650;SDS011;11492;42.646;23.400;2023-06-04T01:31:23;8.65;;;6.25;;
22650;SDS011;11492;42.646;23.400;2023-06-04T01:33:51;6.43;;;5.00;;
22650;SDS011;11492;42.646;23.400;2023-06-04T01:36:18;7.13;;;4.40;;
22650;SDS011;11492;42.646;23.400;2023-06-04T01:38:43;7.20;;;4.82;;
22650;SDS011;11492;42.646;23.400;2023-06-04T01:41:08;9.05;;;4.60;;
22650;SDS011;11492;42.646;23.400;2023-06-04T01:43:34;6.07;;;3.97;;
22650;SDS011;11492;42.646;23.400;2023-06-04T01:46:00;6.45;;;3.80;;
22650;SDS011;11492;42.646;23.400;2023-06-04T01:48:26;7.63;;;4.05;;
22650;SDS011;11492;42.646;23.400;2023-06-04T01:50:52;6.38;;;3.90;;
22650;SDS011;11492;42.646;23.400;2023-06-04T01:53:17;5.72;;;3.70;;
22650;SDS011;11492;42.646;23.400;2023-06-04T01:55:43;5.25;;;3.63;;
22650;SDS011;11492;42.646;23.400;2023-06-04T01:58:09;4.75;;;3.38;;
22650;SDS011;11492;42.646;23.400;2023-06-04T02:00:34;5.10;;;3.28;;
22650;SDS011;11492;42.646;23.400;2023-06-04T02:03:00;3.65;;;2.88;;
22650;SDS011;11492;42.646;23.400;2023-06-04T02:05:25;5.82;;;3.28;;
22650;SDS011;11492;42.646;23.400;2023-06-04T02:07:51;3.85;;;3.40;;
22650;SDS011;11492;42.646;23.400;2023-06-04T02:10:17;5.82;;;3.80;;
22650;SDS011;11492;42.646;23.400;2023-06-04T02:12:54;7.35;;;3.50;;
22650;SDS011;11492;42.646;23.400;2023-06-04T02:15:22;4.72;;;3.53;;
22650;SDS011;11492;42.646;23.400;2023-06-04T02:17:49;4.55;;;3.70;;
22650;SDS011;11492;42.646;23.400;2023-06-04T02:20:15;5.32;;;3.70;;
22650;SDS011;11492;42.646;23.400;2023-06-04T02:22:41;4.97;;;3.70;;
22650;SDS011;11492;42.646;23.400;2023-06-04T02:25:07;12.57;;;4.20;;
22650;SDS011;11492;42.646;23.400;2023-06-04T02:27:34;6.22;;;3.90;;
22650;SDS011;11492;42.646;23.400;2023-06-04T02:30:00;6.53;;;3.97;;
22650;SDS011;11492;42.646;23.400;2023-06-04T02:32:26;8.75;;;4.20;;
22650;SDS011;11492;42.646;23.400;2023-06-04T02:34:53;6.32;;;4.03;;
22650;SDS011;11492;42.646;23.400;2023-06-04T02:37:19;5.45;;;3.90;;
22650;SDS011;11492;42.646;23.400;2023-06-04T02:39:45;5.72;;;3.88;;
22650;SDS011;11492;42.646;23.400;2023-06-04T02:42:10;10.88;;;4.28;;
22650;SDS011;11492;42.646;23.400;2023-06-04T02:44:35;7.40;;;3.95;;
22650;SDS011;11492;42.646;23.400;2023-06-04T02:47:01;4.60;;;3.60;;
22650;SDS011;11492;42.646;23.400;2023-06-04T02:49:26;5.40;;;4.10;;
22650;SDS011;11492;42.646;23.400;2023-06-04T02:51:52;10.10;;;4.20;;
22650;SDS011;11492;42.646;23.400;2023-06-04T02:54:17;8.50;;;4.00;;
22650;SDS011;11492;42.646;23.400;2023-06-04T02:56:42;6.53;;;3.95;;
22650;SDS011;11492;42.646;23.400;2023-06-04T02:59:09;5.75;;;3.30;;
22650;SDS011;11492;42.646;23.400;2023-06-04T03:01:35;7.35;;;3.75;;
22650;SDS011;11492;42.646;23.400;2023-06-04T03:04:01;5.90;;;3.67;;
22650;SDS011;11492;42.646;23.400;2023-06-04T03:06:29;6.75;;;3.78;;
22650;SDS011;11492;42.646;23.400;2023-06-04T03:08:57;8.68;;;4.18;;
22650;SDS011;11492;42.646;23.400;2023-06-04T03:11:23;7.82;;;3.60;;
22650;SDS011;11492;42.646;23.400;2023-06-04T03:13:48;7.78;;;3.80;;
22650;SDS011;11492;42.646;23.400;2023-06-04T03:16:16;7.07;;;3.55;;
22650;SDS011;11492;42.646;23.400;2023-06-04T03:18:42;7.75;;;3.70;;
22650;SDS011;11492;42.646;23.400;2023-06-04T03:21:08;6.57;;;3.35;;
22650;SDS011;11492;42.646;23.400;2023-06-04T03:23:36;5.68;;;3.25;;
22650;SDS011;11492;42.646;23.400;2023-06-04T03:26:02;5.13;;;3.25;;
22650;SDS011;11492;42.646;23.400;2023-06-04T03:28:29;6.05;;;3.15;;
22650;SDS011;11492;42.646;23.400;2023-06-04T03:30:54;8.55;;;3.40;;
22650;SDS011;11492;42.646;23.400;2023-06-04T03:33:20;4.55;;;3.17;;
22650;SDS011;11492;42.646;23.400;2023-06-04T03:35:45;12.60;;;3.70;;
22650;SDS011;11492;42.646;23.400;2023-06-04T03:38:13;6.63;;;3.28;;
22650;SDS011;11492;42.646;23.400;2023-06-04T03:40:39;6.60;;;3.50;;
22650;SDS011;11492;42.646;23.400;2023-06-04T03:43:04;5.90;;;3.65;;
22650;SDS011;11492;42.646;23.400;2023-06-04T03:45:30;5.68;;;3.17;;
22650;SDS011;11492;42.646;23.400;2023-06-04T03:47:55;4.25;;;3.25;;
22650;SDS011;11492;42.646;23.400;2023-06-04T03:50:21;6.40;;;3.47;;
22650;SDS011;11492;42.646;23.400;2023-06-04T03:52:47;8.20;;;3.70;;
22650;SDS011;11492;42.646;23.400;2023-06-04T03:55:13;8.30;;;3.40;;
22650;SDS011;11492;42.646;23.400;2023-06-04T03:57:39;4.25;;;3.40;;
22650;SDS011;11492;42.646;23.400;2023-06-04T04:00:07;6.30;;;4.00;;
22650;SDS011;11492;42.646;23.400;2023-06-04T04:02:39;7.97;;;3.70;;
22650;SDS011;11492;42.646;23.400;2023-06-04T04:05:05;3.97;;;3.50;;
22650;SDS011;11492;42.646;23.400;2023-06-04T04:07:31;7.22;;;4.15;;
22650;SDS011;11492;42.646;23.400;2023-06-04T04:09:57;9.15;;;3.65;;
22650;SDS011;11492;42.646;23.400;2023-06-04T04:12:22;4.25;;;3.38;;
22650;SDS011;11492;42.646;23.400;2023-06-04T04:14:48;6.20;;;3.85;;
22650;SDS011;11492;42.646;23.400;2023-06-04T04:17:14;8.38;;;3.67;;
22650;SDS011;11492;42.646;23.400;2023-06-04T04:19:40;9.40;;;3.58;;
22650;SDS011;11492;42.646;23.400;2023-06-04T04:22:05;5.57;;;3.40;;
22650;SDS011;11492;42.646;23.400;2023-06-04T04:24:31;5.40;;;3.63;;
22650;SDS011;11492;42.646;23.400;2023-06-04T04:26:59;5.03;;;3.58;;
22650;SDS011;11492;42.646;23.400;2023-06-04T04:29:24;17.80;;;3.65;;
22650;SDS011;11492;42.646;23.400;2023-06-04T04:31:50;10.55;;;3.90;;
22650;SDS011;11492;42.646;23.400;2023-06-04T04:34:21;9.10;;;4.13;;
22650;SDS011;11492;42.646;23.400;2023-06-04T04:36:47;6.57;;;3.70;;
22650;SDS011;11492;42.646;23.400;2023-06-04T04:39:22;5.40;;;4.10;;
22650;SDS011;11492;42.646;23.400;2023-06-04T04:41:49;7.43;;;3.75;;
22650;SDS011;11492;42.646;23.400;2023-06-04T04:44:15;9.77;;;4.32;;
22650;SDS011;11492;42.646;23.400;2023-06-04T04:46:41;9.85;;;3.85;;
22650;SDS011;11492;42.646;23.400;2023-06-04T04:49:06;8.70;;;4.03;;
22650;SDS011;11492;42.646;23.400;2023-06-04T04:51:32;9.05;;;4.43;;
22650;SDS011;11492;42.646;23.400;2023-06-04T04:53:57;5.65;;;4.03;;
22650;SDS011;11492;42.646;23.400;2023-06-04T04:56:25;7.60;;;4.47;;
22650;SDS011;11492;42.646;23.400;2023-06-04T04:58:51;7.72;;;4.10;;
22650;SDS011;11492;42.646;23.400;2023-06-04T05:01:17;7.53;;;4.22;;
22650;SDS011;11492;42.646;23.400;2023-06-04T05:03:42;9.77;;;4.28;;
22650;SDS011;11492;42.646;23.400;2023-06-04T05:06:08;9.63;;;3.88;;
22650;SDS011;11492;42.646;23.400;2023-06-04T05:08:33;10.38;;;3.90;;
22650;SDS011;11492;42.646;23.400;2023-06-04T05:10:59;6.07;;;3.97;;
22650;SDS011;11492;42.646;23.400;2023-06-04T05:13:25;8.82;;;4.40;;
22650;SDS011;11492;42.646;23.400;2023-06-04T05:15:51;7.68;;;4.45;;
22650;SDS011;11492;42.646;23.400;2023-06-04T05:18:17;16.80;;;4.22;;
22650;SDS011;11492;42.646;23.400;2023-06-04T05:20:45;9.30;;;4.25;;
22650;SDS011;11492;42.646;23.400;2023-06-04T05:23:11;14.77;;;6.75;;
22650;SDS011;11492;42.646;23.400;2023-06-04T05:25:37;11.30;;;4.93;;
22650;SDS011;11492;42.646;23.400;2023-06-04T05:28:03;12.15;;;5.15;;
22650;SDS011;11492;42.646;23.400;2023-06-04T05:30:30;16.20;;;4.63;;
22650;SDS011;11492;42.646;23.400;2023-06-04T05:32:56;13.25;;;5.28;;
22650;SDS011;11492;42.646;23.400;2023-06-04T05:35:22;12.15;;;5.35;;
22650;SDS011;11492;42.646;23.400;2023-06-04T05:37:47;20.38;;;4.97;;
22650;SDS011;11492;42.646;23.400;2023-06-04T05:40:18;13.18;;;5.15;;
22650;SDS011;11492;42.646;23.400;2023-06-04T05:42:46;20.25;;;5.30;;
22650;SDS011;11492;42.646;23.400;2023-06-04T05:45:12;14.98;;;5.85;;
22650;SDS011;11492;42.646;23.400;2023-06-04T05:47:37;15.77;;;5.63;;
22650;SDS011;11492;42.646;23.400;2023-06-04T05:50:03;8.70;;;5.07;;
22650;SDS011;11492;42.646;23.400;2023-06-04T05:52:29;10.65;;;5.07;;
22650;SDS011;11492;42.646;23.400;2023-06-04T05:54:54;17.80;;;5.60;;
22650;SDS011;11492;42.646;23.400;2023-06-04T05:57:20;12.48;;;5.10;;
22650;SDS011;11492;42.646;23.400;2023-06-04T05:59:46;10.63;;;5.13;;
22650;SDS011;11492;42.646;23.400;2023-06-04T06:02:11;16.65;;;5.10;;
22650;SDS011;11492;42.646;23.400;2023-06-04T06:04:38;10.68;;;5.20;;
22650;SDS011;11492;42.646;23.400;2023-06-04T06:07:03;9.15;;;5.18;;
22650;SDS011;11492;42.646;23.400;2023-06-04T06:09:29;15.10;;;4.93;;
22650;SDS011;11492;42.646;23.400;2023-06-04T06:11:54;16.35;;;5.03;;
22650;SDS011;11492;42.646;23.400;2023-06-04T06:14:19;12.88;;;4.88;;
22650;SDS011;11492;42.646;23.400;2023-06-04T06:16:45;12.93;;;5.15;;
22650;SDS011;11492;42.646;23.400;2023-06-04T06:19:11;11.07;;;5.20;;
22650;SDS011;11492;42.646;23.400;2023-06-04T06:21:37;14.38;;;5.65;;
22650;SDS011;11492;42.646;23.400;2023-06-04T06:24:02;16.45;;;5.18;;
22650;SDS011;11492;42.646;23.400;2023-06-04T06:26:28;18.40;;;4.78;;
22650;SDS011;11492;42.646;23.400;2023-06-04T06:28:55;14.05;;;5.18;;
22650;SDS011;11492;42.646;23.400;2023-06-04T06:31:21;13.82;;;5.45;;
22650;SDS011;11492;42.646;23.400;2023-06-04T06:33:46;11.55;;;4.82;;
22650;SDS011;11492;42.646;23.400;2023-06-04T06:36:11;11.23;;;5.05;;
22650;SDS011;11492;42.646;23.400;2023-06-04T06:38:38;15.30;;;4.68;;
22650;SDS011;11492;42.646;23.400;2023-06-04T06:41:03;12.65;;;4.72;;
22650;SDS011;11492;42.646;23.400;2023-06-04T06:43:29;10.85;;;4.50;;
22650;SDS011;11492;42.646;23.400;2023-06-04T06:45:54;9.63;;;4.15;;
22650;SDS011;11492;42.646;23.400;2023-06-04T06:48:20;12.60;;;4.82;;
22650;SDS011;11492;42.646;23.400;2023-06-04T06:50:45;14.77;;;4.85;;
22650;SDS011;11492;42.646;23.400;2023-06-04T06:53:11;12.48;;;4.80;;
22650;SDS011;11492;42.646;23.400;2023-06-04T06:55:36;10.65;;;4.72;;
22650;SDS011;11492;42.646;23.400;2023-06-04T06:58:01;9.48;;;4.90;;
22650;SDS011;11492;42.646;23.400;2023-06-04T07:00:27;15.20;;;5.10;;
22650;SDS011;11492;42.646;23.400;2023-06-04T07:02:53;7.40;;;4.35;;
22650;SDS011;11492;42.646;23.400;2023-06-04T07:05:19;8.35;;;4.43;;
22650;SDS011;11492;42.646;23.400;2023-06-04T07:07:44;6.45;;;3.97;;
22650;SDS011;11492;42.646;23.400;2023-06-04T07:10:11;8.40;;;4.50;;
22650;SDS011;11492;42.646;23.400;2023-06-04T07:12:37;11.50;;;4.40;;
22650;SDS011;11492;42.646;23.400;2023-06-04T07:15:03;6.15;;;4.13;;
22650;SDS011;11492;42.646;23.400;2023-06-04T07:17:30;9.73;;;4.32;;
22650;SDS011;11492;42.646;23.400;2023-06-04T07:19:55;10.43;;;4.20;;
22650;SDS011;11492;42.646;23.400;2023-06-04T07:22:21;12.07;;;4.32;;
22650;SDS011;11492;42.646;23.400;2023-06-04T07:24:46;9.15;;;4.28;;
22650;SDS011;11492;42.646;23.400;2023-06-04T07:27:12;8.30;;;4.40;;
22650;SDS011;11492;42.646;23.400;2023-06-04T07:29:38;10.98;;;4.32;;
22650;SDS011;11492;42.646;23.400;2023-06-04T07:32:04;7.75;;;4.18;;
22650;SDS011;11492;42.646;23.400;2023-06-04T07:34:29;6.95;;;4.50;;
22650;SDS011;11492;42.646;23.400;2023-06-04T07:36:55;9.23;;;3.83;;
22650;SDS011;11492;42.646;23.400;2023-06-04T07:39:20;10.00;;;4.63;;
22650;SDS011;11492;42.646;23.400;2023-06-04T07:41:46;6.43;;;4.20;;
22650;SDS011;11492;42.646;23.400;2023-06-04T07:44:12;9.50;;;4.85;;
22650;SDS011;11492;42.646;23.400;2023-06-04T07:46:37;11.75;;;4.47;;
22650;SDS011;11492;42.646;23.400;2023-06-04T07:49:02;8.57;;;4.45;;
22650;SDS011;11492;42.646;23.400;2023-06-04T07:51:28;6.80;;;4.13;;
22650;SDS011;11492;42.646;23.400;2023-06-04T07:53:53;9.45;;;4.75;;
22650;SDS011;11492;42.646;23.400;2023-06-04T07:56:19;12.27;;;4.75;;
22650;SDS011;11492;42.646;23.400;2023-06-04T07:58:44;9.95;;;4.40;;
22650;SDS011;11492;42.646;23.400;2023-06-04T08:01:10;10.77;;;4.75;;
22650;SDS011;11492;42.646;23.400;2023-06-04T08:03:35;9.90;;;4.53;;
22650;SDS011;11492;42.646;23.400;2023-06-04T08:06:01;9.57;;;4.13;;
22650;SDS011;11492;42.646;23.400;2023-06-04T08:08:27;8.45;;;5.03;;
22650;SDS011;11492;42.646;23.400;2023-06-04T08:10:52;13.85;;;5.00;;
22650;SDS011;11492;42.646;23.400;2023-06-04T08:13:18;7.95;;;4.85;;
22650;SDS011;11492;42.646;23.400;2023-06-04T08:15:43;8.63;;;4.72;;
22650;SDS011;11492;42.646;23.400;2023-06-04T08:18:09;9.38;;;4.75;;
22650;SDS011;11492;42.646;23.400;2023-06-04T08:20:34;15.18;;;5.00;;
22650;SDS011;11492;42.646;23.400;2023-06-04T08:23:00;8.77;;;4.78;;
22650;SDS011;11492;42.646;23.400;2023-06-04T08:25:25;9.30;;;5.55;;
22650;SDS011;11492;42.646;23.400;2023-06-04T08:27:51;10.68;;;4.97;;
22650;SDS011;11492;42.646;23.400;2023-06-04T08:30:16;9.68;;;4.85;;
22650;SDS011;11492;42.646;23.400;2023-06-04T08:32:42;12.77;;;5.20;;
22650;SDS011;11492;42.646;23.400;2023-06-04T08:35:07;10.90;;;5.05;;
22650;SDS011;11492;42.646;23.400;2023-06-04T08:37:33;9.80;;;5.25;;
22650;SDS011;11492;42.646;23.400;2023-06-04T08:39:58;13.18;;;5.70;;
22650;SDS011;11492;42.646;23.400;2023-06-04T08:42:30;13.77;;;5.00;;
22650;SDS011;11492;42.646;23.400;2023-06-04T08:44:57;8.65;;;5.22;;
22650;SDS011;11492;42.646;23.400;2023-06-04T08:47:24;10.20;;;5.40;;
22650;SDS011;11492;42.646;23.400;2023-06-04T08:49:51;22.73;;;5.95;;
22650;SDS011;11492;42.646;23.400;2023-06-04T08:52:19;11.73;;;5.50;;
22650;SDS011;11492;42.646;23.400;2023-06-04T08:54:48;10.98;;;4.75;;
22650;SDS011;11492;42.646;23.400;2023-06-04T08:57:15;10.50;;;5.43;;
22650;SDS011;11492;42.646;23.400;2023-06-04T08:59:42;11.75;;;5.85;;
22650;SDS011;11492;42.646;23.400;2023-06-04T09:02:07;10.75;;;6.25;;
22650;SDS011;11492;42.646;23.400;2023-06-04T09:04:33;9.38;;;6.18;;
22650;SDS011;11492;42.646;23.400;2023-06-04T09:07:02;7.63;;;5.90;;
22650;SDS011;11492;42.646;23.400;2023-06-04T09:09:29;14.40;;;6.07;;
22650;SDS011;11492;42.646;23.400;2023-06-04T09:11:56;19.52;;;6.25;;
22650;SDS011;11492;42.646;23.400;2023-06-04T09:14:22;22.33;;;6.63;;
22650;SDS011;11492;42.646;23.400;2023-06-04T09:16:49;11.30;;;6.05;;
22650;SDS011;11492;42.646;23.400;2023-06-04T09:19:16;19.10;;;6.55;;
22650;SDS011;11492;42.646;23.400;2023-06-04T09:24:22;18.48;;;6.55;;
22650;SDS011;11492;42.646;23.400;2023-06-04T09:26:49;15.30;;;6.35;;
22650;SDS011;11492;42.646;23.400;2023-06-04T09:29:15;12.73;;;6.57;;
22650;SDS011;11492;42.646;23.400;2023-06-04T09:31:44;13.05;;;6.05;;
22650;SDS011;11492;42.646;23.400;2023-06-04T09:34:10;14.88;;;6.30;;
22650;SDS011;11492;42.646;23.400;2023-06-04T09:36:35;15.13;;;8.30;;
22650;SDS011;11492;42.646;23.400;2023-06-04T09:39:23;14.95;;;8.40;;
22650;SDS011;11492;42.646;23.400;2023-06-04T09:41:58;15.38;;;8.75;;
22650;SDS011;11492;42.646;23.400;2023-06-04T09:44:29;15.48;;;7.65;;
22650;SDS011;11492;42.646;23.400;2023-06-04T09:46:58;14.25;;;7.47;;
22650;SDS011;11492;42.646;23.400;2023-06-04T09:49:24;14.20;;;7.30;;
22650;SDS011;11492;42.646;23.400;2023-06-04T09:51:49;14.55;;;6.57;;
22650;SDS011;11492;42.646;23.400;2023-06-04T09:54:16;12.60;;;6.00;;
22650;SDS011;11492;42.646;23.400;2023-06-04T09:56:41;17.38;;;6.78;;
22650;SDS011;11492;42.646;23.400;2023-06-04T09:59:10;10.65;;;6.13;;
22650;SDS011;11492;42.646;23.400;2023-06-04T10:01:39;13.57;;;6.13;;
22650;SDS011;11492;42.646;23.400;2023-06-04T10:04:09;10.40;;;5.45;;
22650;SDS011;11492;42.646;23.400;2023-06-04T10:06:37;10.05;;;5.57;;
22650;SDS011;11492;42.646;23.400;2023-06-04T10:09:04;7.43;;;4.90;;
22650;SDS011;11492;42.646;23.400;2023-06-04T10:11:37;10.88;;;5.68;;
22650;SDS011;11492;42.646;23.400;2023-06-04T10:14:10;12.27;;;5.53;;
22650;SDS011;11492;42.646;23.400;2023-06-04T10:16:51;8.95;;;5.85;;
22650;SDS011;11492;42.646;23.400;2023-06-04T10:19:16;10.90;;;5.57;;
22650;SDS011;11492;42.646;23.400;2023-06-04T10:21:43;11.82;;;5.60;;
22650;SDS011;11492;42.646;23.400;2023-06-04T10:24:09;11.68;;;6.90;;
22650;SDS011;11492;42.646;23.400;2023-06-04T10:26:35;8.38;;;6.10;;
22650;SDS011;11492;42.646;23.400;2023-06-04T10:29:03;11.68;;;6.18;;
22650;SDS011;11492;42.646;23.400;2023-06-04T10:31:30;7.55;;;5.22;;
22650;SDS011;11492;42.646;23.400;2023-06-04T10:33:57;14.57;;;5.18;;
22650;SDS011;11492;42.646;23.400;2023-06-04T10:36:23;10.98;;;5.20;;
22650;SDS011;11492;42.646;23.400;2023-06-04T10:38:53;8.10;;;4.82;;
22650;SDS011;11492;42.646;23.400;2023-06-04T10:41:19;9.10;;;5.03;;
22650;SDS011;11492;42.646;23.400;2023-06-04T10:43:49;10.60;;;5.25;;
22650;SDS011;11492;42.646;23.400;2023-06-04T10:46:19;9.27;;;5.10;;
22650;SDS011;11492;42.646;23.400;2023-06-04T10:48:48;9.15;;;5.65;;
22650;SDS011;11492;42.646;23.400;2023-06-04T10:51:15;8.77;;;5.15;;
22650;SDS011;11492;42.646;23.400;2023-06-04T10:53:42;14.07;;;5.45;;
22650;SDS011;11492;42.646;23.400;2023-06-04T10:56:07;9.30;;;5.88;;
22650;SDS011;11492;42.646;23.400;2023-06-04T10:58:33;13.30;;;5.70;;
22650;SDS011;11492;42.646;23.400;2023-06-04T11:01:00;9.57;;;5.15;;
22650;SDS011;11492;42.646;23.400;2023-06-04T11:03:35;9.13;;;5.88;;
22650;SDS011;11492;42.646;23.400;2023-06-04T11:06:01;10.02;;;5.85;;
22650;SDS011;11492;42.646;23.400;2023-06-04T11:08:27;9.43;;;5.93;;
22650;SDS011;11492;42.646;23.400;2023-06-04T11:10:54;13.07;;;6.35;;
22650;SDS011;11492;42.646;23.400;2023-06-04T11:13:26;11.20;;;6.55;;
22650;SDS011;11492;42.646;23.400;2023-06-04T11:15:51;9.32;;;6.30;;
22650;SDS011;11492;42.646;23.400;2023-06-04T11:18:20;14.07;;;7.63;;
22650;SDS011;11492;42.646;23.400;2023-06-04T11:20:48;14.63;;;6.45;;
22650;SDS011;11492;42.646;23.400;2023-06-04T11:23:15;12.20;;;6.25;;
22650;SDS011;11492;42.646;23.400;2023-06-04T11:25:42;15.68;;;6.57;;
22650;SDS011;11492;42.646;23.400;2023-06-04T11:28:14;13.32;;;6.80;;
22650;SDS011;11492;42.646;23.400;2023-06-04T11:30:42;8.57;;;5.90;;
22650;SDS011;11492;42.646;23.400;2023-06-04T11:33:07;10.85;;;6.32;;
22650;SDS011;11492;42.646;23.400;2023-06-04T11:35:39;13.25;;;6.47;;
22650;SDS011;11492;42.646;23.400;2023-06-04T11:38:06;9.82;;;6.20;;
22650;SDS011;11492;42.646;23.400;2023-06-04T11:40:32;10.52;;;6.68;;
22650;SDS011;11492;42.646;23.400;2023-06-04T11:42:57;17.15;;;6.95;;
22650;SDS011;11492;42.646;23.400;2023-06-04T11:45:22;10.13;;;7.50;;
22650;SDS011;11492;42.646;23.400;2023-06-04T11:50:18;14.07;;;6.60;;
22650;SDS011;11492;42.646;23.400;2023-06-04T11:52:45;13.60;;;6.80;;
22650;SDS011;11492;42.646;23.400;2023-06-04T11:55:11;15.93;;;7.13;;
22650;SDS011;11492;42.646;23.400;2023-06-04T11:57:37;12.55;;;6.78;;
22650;SDS011;11492;42.646;23.400;2023-06-04T12:00:05;12.95;;;5.47;;
22650;SDS011;11492;42.646;23.400;2023-06-04T12:02:35;12.13;;;6.10;;
22650;SDS011;11492;42.646;23.400;2023-06-04T12:05:13;11.35;;;5.70;;
22650;SDS011;11492;42.646;23.400;2023-06-04T12:07:39;14.25;;;5.90;;
22650;SDS011;11492;42.646;23.400;2023-06-04T12:10:06;11.68;;;5.75;;
22650;SDS011;11492;42.646;23.400;2023-06-04T12:12:33;11.98;;;5.57;;
22650;SDS011;11492;42.646;23.400;2023-06-04T12:15:00;15.48;;;5.80;;
22650;SDS011;11492;42.646;23.400;2023-06-04T12:17:25;11.25;;;5.88;;
22650;SDS011;11492;42.646;23.400;2023-06-04T12:19:51;8.38;;;5.75;;
22650;SDS011;11492;42.646;23.400;2023-06-04T12:22:17;15.25;;;6.00;;
22650;SDS011;11492;42.646;23.400;2023-06-04T12:24:47;10.85;;;5.65;;
22650;SDS011;11492;42.646;23.400;2023-06-04T12:27:19;12.85;;;6.30;;
22650;SDS011;11492;42.646;23.400;2023-06-04T12:30:00;18.05;;;6.57;;
22650;SDS011;11492;42.646;23.400;2023-06-04T12:32:28;16.90;;;6.40;;
22650;SDS011;11492;42.646;23.400;2023-06-04T12:34:54;9.55;;;6.00;;
22650;SDS011;11492;42.646;23.400;2023-06-04T12:37:20;11.38;;;5.85;;
22650;SDS011;11492;42.646;23.400;2023-06-04T12:39:47;9.85;;;5.97;;
22650;SDS011;11492;42.646;23.400;2023-06-04T12:42:12;13.23;;;5.93;;
22650;SDS011;11492;42.646;23.400;2023-06-04T12:44:38;11.75;;;5.55;;
22650;SDS011;11492;42.646;23.400;2023-06-04T12:47:05;10.07;;;5.90;;
22650;SDS011;11492;42.646;23.400;2023-06-04T12:49:31;12.15;;;5.63;;
22650;SDS011;11492;42.646;23.400;2023-06-04T12:51:57;13.98;;;6.50;;
22650;SDS011;11492;42.646;23.400;2023-06-04T12:54:23;10.60;;;5.63;;
22650;SDS011;11492;42.646;23.400;2023-06-04T12:56:49;10.25;;;5.35;;
22650;SDS011;11492;42.646;23.400;2023-06-04T12:59:14;10.55;;;5.70;;
22650;SDS011;11492;42.646;23.400;2023-06-04T13:01:40;12.15;;;6.15;;
22650;SDS011;11492;42.646;23.400;2023-06-04T13:04:05;7.90;;;5.47;;
22650;SDS011;11492;42.646;23.400;2023-06-04T13:06:31;10.30;;;5.63;;
22650;SDS011;11492;42.646;23.400;2023-06-04T13:08:57;9.82;;;5.63;;
22650;SDS011;11492;42.646;23.400;2023-06-04T13:11:22;8.45;;;5.93;;
22650;SDS011;11492;42.646;23.400;2023-06-04T13:13:48;16.15;;;6.47;;
22650;SDS011;11492;42.646;23.400;2023-06-04T13:16:13;8.70;;;6.25;;
22650;SDS011;11492;42.646;23.400;2023-06-04T13:18:39;12.05;;;6.80;;
22650;SDS011;11492;42.646;23.400;2023-06-04T13:21:04;12.50;;;6.03;;
22650;SDS011;11492;42.646;23.400;2023-06-04T13:23:30;12.88;;;6.10;;
22650;SDS011;11492;42.646;23.400;2023-06-04T13:25:56;12.23;;;5.75;;
22650;SDS011;11492;42.646;23.400;2023-06-04T13:28:21;10.48;;;5.90;;
22650;SDS011;11492;42.646;23.400;2023-06-04T13:30:46;12.68;;;5.50;;
22650;SDS011;11492;42.646;23.400;2023-06-04T13:33:12;12.15;;;5.35;;
22650;SDS011;11492;42.646;23.400;2023-06-04T13:35:37;9.38;;;4.95;;
22650;SDS011;11492;42.646;23.400;2023-06-04T13:38:04;12.68;;;5.25;;
22650;SDS011;11492;42.646;23.400;2023-06-04T13:40:31;19.45;;;5.78;;
22650;SDS011;11492;42.646;23.400;2023-06-04T13:42:59;9.68;;;5.55;;
22650;SDS011;11492;42.646;23.400;2023-06-04T13:45:24;12.15;;;6.43;;
22650;SDS011;11492;42.646;23.400;2023-06-04T13:47:50;11.55;;;6.05;;
22650;SDS011;11492;42.646;23.400;2023-06-04T13:50:15;10.23;;;5.80;;
22650;SDS011;11492;42.646;23.400;2023-06-04T13:52:41;10.38;;;6.15;;
22650;SDS011;11492;42.646;23.400;2023-06-04T13:55:07;12.15;;;5.90;;
22650;SDS011;11492;42.646;23.400;2023-06-04T13:57:32;15.55;;;9.80;;
22650;SDS011;11492;42.646;23.400;2023-06-04T13:59:58;9.48;;;6.53;;
22650;SDS011;11492;42.646;23.400;2023-06-04T14:02:23;12.52;;;5.95;;
22650;SDS011;11492;42.646;23.400;2023-06-04T14:04:49;11.90;;;5.22;;
22650;SDS011;11492;42.646;23.400;2023-06-04T14:07:16;13.20;;;5.80;;
22650;SDS011;11492;42.646;23.400;2023-06-04T14:09:42;11.10;;;6.30;;
22650;SDS011;11492;42.646;23.400;2023-06-04T14:12:07;10.52;;;5.38;;
22650;SDS011;11492;42.646;23.400;2023-06-04T14:14:33;9.45;;;6.43;;
22650;SDS011;11492;42.646;23.400;2023-06-04T14:17:02;13.25;;;6.32;;
22650;SDS011;11492;42.646;23.400;2023-06-04T14:19:29;10.30;;;6.03;;
22650;SDS011;11492;42.646;23.400;2023-06-04T14:21:54;14.85;;;6.07;;
22650;SDS011;11492;42.646;23.400;2023-06-04T14:24:20;12.07;;;6.32;;
22650;SDS011;11492;42.646;23.400;2023-06-04T14:26:45;10.13;;;6.32;;